createdAt,value
2023-04-09T00:00:18.591Z,1
2023-04-09T00:05:18.622Z,0
2023-04-09T00:10:18.595Z,1
2023-04-09T00:15:30.161Z,0
2023-04-09T00:20:18.607Z,0
2023-04-09T00:25:18.723Z,0
2023-04-09T00:30:18.634Z,0
2023-04-09T00:35:18.668Z,0
2023-04-09T00:40:18.783Z,0
2023-04-09T00:45:15.560Z,0
2023-04-09T00:50:15.649Z,0
2023-04-09T00:55:18.760Z,0
2023-04-09T01:00:18.749Z,0
2023-04-09T01:05:18.689Z,0
2023-04-09T01:10:18.767Z,0
2023-04-09T01:15:18.775Z,0
2023-04-09T01:20:18.731Z,0
2023-04-09T01:25:18.771Z,0
2023-04-09T01:30:18.675Z,0
2023-04-09T01:35:18.766Z,0
2023-04-09T01:40:15.747Z,0
2023-04-09T01:45:18.802Z,0
2023-04-09T01:50:15.974Z,0
2023-04-09T01:55:18.827Z,0
2023-04-09T02:00:18.826Z,0
2023-04-09T02:05:18.788Z,0
2023-04-09T02:10:18.860Z,1
2023-04-09T02:15:18.858Z,0
2023-04-09T02:20:18.923Z,0
2023-04-09T02:25:18.889Z,0
2023-04-09T02:30:18.869Z,0
2023-04-09T02:35:15.827Z,1
2023-04-09T02:40:18.947Z,0
2023-04-09T02:45:18.888Z,0
2023-04-09T02:50:18.862Z,0
2023-04-09T02:55:18.929Z,0
2023-04-09T03:00:18.889Z,0
2023-04-09T03:05:18.942Z,0
2023-04-09T03:10:18.954Z,0
2023-04-09T03:15:18.956Z,0
2023-04-09T03:20:19.068Z,0
2023-04-09T03:25:15.841Z,0
2023-04-09T03:30:16.023Z,0
2023-04-09T03:35:19.042Z,0
2023-04-09T03:40:18.972Z,0
2023-04-09T03:45:19.012Z,0
2023-04-09T03:50:19.077Z,0
2023-04-09T03:55:19.017Z,0
2023-04-09T04:00:17.224Z,0
2023-04-09T04:05:20.334Z,0
2023-04-09T04:10:20.324Z,0
2023-04-09T04:15:20.302Z,0
2023-04-09T04:20:20.338Z,0
2023-04-09T04:25:20.309Z,0
2023-04-09T04:30:20.569Z,0
2023-04-09T04:35:20.390Z,0
2023-04-09T04:40:20.389Z,0
2023-04-09T04:45:20.342Z,1
2023-04-09T04:50:17.238Z,1
2023-04-09T04:55:17.325Z,0
2023-04-09T05:00:20.431Z,0
2023-04-09T05:05:20.425Z,0
2023-04-09T05:10:20.454Z,0
2023-04-09T05:15:20.435Z,0
2023-04-09T05:20:20.480Z,0
2023-04-09T05:25:20.528Z,1
2023-04-09T05:30:20.447Z,1
2023-04-09T05:35:20.503Z,0
2023-04-09T05:40:20.544Z,0
2023-04-09T05:45:17.420Z,0
2023-04-09T05:50:20.569Z,0
2023-04-09T05:55:20.632Z,0
2023-04-09T06:00:20.496Z,0
2023-04-09T06:05:20.614Z,0
2023-04-09T06:10:20.596Z,0
2023-04-09T06:15:20.594Z,1
2023-04-09T06:20:20.526Z,1
2023-04-09T06:25:20.617Z,1
2023-04-09T06:30:18.772Z,0
2023-04-09T06:35:18.563Z,1
2023-04-09T06:40:19.668Z,0
2023-04-09T06:45:18.693Z,0
2023-04-09T06:50:18.699Z,0
2023-04-09T06:55:18.609Z,0
2023-04-09T07:00:18.661Z,0
2023-04-09T07:05:18.675Z,0
2023-04-09T07:10:18.573Z,0
2023-04-09T07:15:15.460Z,0
2023-04-09T07:20:15.668Z,0
2023-04-09T07:25:18.774Z,0
2023-04-09T07:30:18.717Z,0
2023-04-09T07:35:18.814Z,0
2023-04-09T07:40:18.765Z,0
2023-04-09T07:45:15.780Z,0
2023-04-09T07:50:18.793Z,0
2023-04-09T07:55:18.857Z,0
2023-04-09T08:00:18.768Z,1
2023-04-09T08:05:18.961Z,0
2023-04-09T08:10:15.522Z,0
2023-04-09T08:15:15.672Z,0
2023-04-09T08:20:18.758Z,0
2023-04-09T08:25:18.977Z,0
2023-04-09T08:30:19.051Z,0
2023-04-09T08:35:18.956Z,0
2023-04-09T08:40:18.822Z,0
2023-04-09T08:45:18.872Z,0
2023-04-09T08:50:18.872Z,1
2023-04-09T08:55:18.994Z,0
2023-04-09T09:00:18.931Z,0
2023-04-09T09:05:15.919Z,0
2023-04-09T09:10:15.914Z,0
2023-04-09T09:15:19.130Z,1
2023-04-09T09:20:15.963Z,1
2023-04-09T09:25:19.094Z,0
2023-04-09T09:30:19.047Z,0
2023-04-09T09:35:18.922Z,0
2023-04-09T09:40:19.050Z,0
2023-04-09T09:45:19.058Z,0
2023-04-09T09:50:19.025Z,0
2023-04-09T09:55:18.972Z,0
2023-04-09T10:00:16.023Z,0
2023-04-09T10:05:16.111Z,1
2023-04-09T10:10:19.007Z,0
2023-04-09T10:15:19.187Z,0
2023-04-09T10:20:19.169Z,0
2023-04-09T10:25:19.120Z,0
2023-04-09T10:30:19.140Z,0
2023-04-09T10:35:19.060Z,0
2023-04-09T10:40:19.148Z,0
2023-04-09T10:45:20.703Z,0
2023-04-09T10:50:16.144Z,0
2023-04-09T10:55:16.103Z,0
2023-04-09T11:00:19.206Z,0
2023-04-09T11:05:19.210Z,0
2023-04-09T11:10:19.228Z,0
2023-04-09T11:15:19.210Z,0
2023-04-09T11:20:19.186Z,0
2023-04-09T11:25:19.257Z,0
2023-04-09T11:30:19.309Z,0
2023-04-09T11:35:19.277Z,0
2023-04-09T11:40:19.228Z,1
2023-04-09T11:45:16.166Z,1
2023-04-09T11:50:16.152Z,1
2023-04-09T11:55:19.417Z,0
2023-04-09T12:00:19.390Z,0
2023-04-09T12:05:19.406Z,0
2023-04-09T12:10:19.339Z,1
2023-04-09T12:15:19.416Z,0
2023-04-09T12:20:19.424Z,0
2023-04-09T12:25:19.382Z,1
2023-04-09T12:30:19.453Z,1
2023-04-09T12:35:19.405Z,1
2023-04-09T12:40:16.212Z,2
2023-04-09T12:45:19.494Z,2
2023-04-09T12:50:19.432Z,3
2023-04-09T12:55:19.474Z,5
2023-04-09T13:00:19.427Z,5
2023-04-09T13:05:19.690Z,4
2023-04-09T13:10:19.390Z,2
2023-04-09T13:15:19.520Z,5
2023-04-09T13:20:19.500Z,5
2023-04-09T13:25:19.558Z,6
2023-04-09T13:30:16.417Z,4
2023-04-09T13:35:16.410Z,4
2023-04-09T13:40:19.681Z,4
2023-04-09T13:45:19.628Z,5
2023-04-09T13:50:19.574Z,4
2023-04-09T13:55:19.658Z,4
2023-04-09T14:00:19.668Z,3
2023-04-09T14:05:19.645Z,2
2023-04-09T14:10:19.601Z,3
2023-04-09T14:15:19.665Z,5
2023-04-09T14:20:19.634Z,3
2023-04-09T14:25:16.593Z,4
2023-04-09T14:30:16.753Z,2
2023-04-09T14:35:19.849Z,4
2023-04-09T14:40:19.620Z,4
2023-04-09T14:45:19.637Z,5
2023-04-09T14:50:19.748Z,2
2023-04-09T14:55:19.709Z,5
2023-04-09T15:00:19.690Z,5
2023-04-09T15:05:19.776Z,3
2023-04-09T15:10:19.711Z,5
2023-04-09T15:15:16.572Z,4
2023-04-09T15:20:16.593Z,7
2023-04-09T15:25:19.815Z,7
2023-04-09T15:30:19.734Z,5
2023-04-09T15:35:19.804Z,3
2023-04-09T15:40:19.808Z,6
2023-04-09T15:45:19.752Z,8
2023-04-09T15:50:19.803Z,7
2023-04-09T15:55:19.839Z,7
2023-04-09T16:00:19.805Z,4
2023-04-09T16:05:19.797Z,3
2023-04-09T16:10:16.762Z,2
2023-04-09T16:15:16.608Z,6
2023-04-09T16:20:19.877Z,6
2023-04-09T16:25:19.870Z,1
2023-04-09T16:30:19.818Z,2
2023-04-09T16:35:20.074Z,5
2023-04-09T16:40:20.107Z,6
2023-04-09T16:45:19.839Z,2
2023-04-09T16:50:19.804Z,4
2023-04-09T16:55:19.896Z,8
2023-04-09T17:00:16.794Z,6
2023-04-09T17:05:16.783Z,4
2023-04-09T17:10:19.965Z,2
2023-04-09T17:15:19.899Z,6
2023-04-09T17:20:19.837Z,8
2023-04-09T17:25:19.867Z,8
2023-04-09T17:30:19.858Z,13
2023-04-09T17:35:19.858Z,11
2023-04-09T17:40:19.928Z,15
2023-04-09T17:45:20.055Z,8
2023-04-09T17:50:19.949Z,11
2023-04-09T17:55:16.872Z,12
2023-04-09T18:00:16.902Z,12
2023-04-09T18:05:20.131Z,9
2023-04-09T18:10:20.013Z,11
2023-04-09T18:15:19.941Z,7
2023-04-09T18:20:19.993Z,3
2023-04-09T18:25:19.890Z,12
2023-04-09T18:30:20.022Z,15
2023-04-09T18:35:20.006Z,10
2023-04-09T18:40:19.948Z,14
2023-04-09T18:45:20.032Z,9
2023-04-09T18:50:16.930Z,11
2023-04-09T18:55:20.204Z,10
2023-04-09T19:00:20.039Z,13
2023-04-09T19:05:20.136Z,9
2023-04-09T19:10:20.059Z,13
2023-04-09T19:15:20.061Z,9
2023-04-09T19:20:20.049Z,10
2023-04-09T19:25:20.037Z,6
2023-04-09T19:30:20.074Z,5
2023-04-09T19:35:20.114Z,4
2023-04-09T19:40:17.000Z,6
2023-04-09T19:45:17.041Z,8
2023-04-09T19:50:20.181Z,9
2023-04-09T19:55:20.185Z,10
2023-04-09T20:00:20.188Z,9
2023-04-09T20:05:20.091Z,7
2023-04-09T20:10:20.156Z,9
2023-04-09T20:15:20.212Z,14
2023-04-09T20:20:20.221Z,15
2023-04-09T20:25:20.221Z,11
2023-04-09T20:30:20.106Z,10
2023-04-09T20:35:17.023Z,12
2023-04-09T20:40:17.081Z,9
2023-04-09T20:45:20.303Z,7
2023-04-09T20:50:20.117Z,10
2023-04-09T20:55:20.250Z,10
2023-04-09T21:00:20.168Z,11
2023-04-09T21:05:23.667Z,10
2023-04-09T21:10:20.298Z,7
2023-04-09T21:15:20.286Z,12
2023-04-09T21:20:20.282Z,6
2023-04-09T21:25:20.259Z,5
2023-04-09T21:30:17.178Z,9
2023-04-09T21:35:20.293Z,9
2023-04-09T21:40:20.313Z,8
2023-04-09T21:45:20.431Z,8
2023-04-09T21:50:20.300Z,10
2023-04-09T21:55:20.286Z,11
2023-04-09T22:00:20.574Z,10
2023-04-09T22:05:20.314Z,7
2023-04-09T22:10:20.317Z,10
2023-04-09T22:15:20.329Z,12
2023-04-09T22:20:17.312Z,7
2023-04-09T22:25:17.298Z,4
2023-04-09T22:30:20.411Z,4
2023-04-09T22:35:20.296Z,6
2023-04-09T22:40:20.309Z,6
2023-04-09T22:45:20.444Z,6
2023-04-09T22:50:20.508Z,5
2023-04-09T22:55:20.415Z,4
2023-04-09T23:00:20.383Z,5
2023-04-09T23:05:20.437Z,3
2023-04-09T23:10:20.408Z,4
2023-04-09T23:15:17.378Z,2
2023-04-09T23:20:17.447Z,0
2023-04-09T23:25:20.585Z,0
2023-04-09T23:30:20.437Z,0
2023-04-09T23:35:20.522Z,0
2023-04-09T23:40:20.438Z,0
2023-04-09T23:45:20.841Z,0
2023-04-09T23:50:20.471Z,0
2023-04-09T23:55:20.489Z,0
